createdAt,value
2017-07-06T00:01:41.508Z,99.90
2017-07-06T00:04:09.730Z,99.90
2017-07-06T00:06:37.955Z,99.90
2017-07-06T00:09:06.220Z,99.90
2017-07-06T00:14:34.928Z,99.90
2017-07-06T00:17:03.151Z,99.90
2017-07-06T00:19:32.135Z,99.90
2017-07-06T00:22:00.432Z,99.90
2017-07-06T00:24:28.646Z,99.90
2017-07-06T00:26:56.869Z,99.90
2017-07-06T00:29:25.916Z,99.90
2017-07-06T00:35:14.647Z,99.90
2017-07-06T00:37:42.876Z,99.90
2017-07-06T00:43:11.642Z,99.90
2017-07-06T00:45:39.877Z,99.90
2017-07-06T00:48:08.098Z,99.90
2017-07-06T00:50:36.373Z,99.90
2017-07-06T00:53:04.590Z,99.90
2017-07-06T00:55:32.820Z,99.90
2017-07-06T00:58:01.127Z,99.90
2017-07-06T01:00:29.364Z,99.90
2017-07-06T01:02:57.589Z,99.90
2017-07-06T01:05:25.870Z,99.90
2017-07-06T01:13:55.407Z,99.90
2017-07-06T01:16:23.790Z,99.90
2017-07-06T01:18:52.011Z,99.90
2017-07-06T01:21:20.377Z,99.90
2017-07-06T01:23:48.617Z,99.90
2017-07-06T01:29:16.744Z,99.90
2017-07-06T01:31:44.974Z,99.90
2017-07-06T01:34:13.209Z,99.90
2017-07-06T01:36:49.462Z,99.90
2017-07-06T01:39:17.700Z,99.90
2017-07-06T01:41:45.941Z,99.90
2017-07-06T01:44:14.217Z,99.90
2017-07-06T01:46:42.434Z,99.90
2017-07-06T01:49:10.658Z,99.90
2017-07-06T01:51:38.914Z,99.90
2017-07-06T01:54:07.157Z,99.90
2017-07-06T01:56:36.157Z,99.90
2017-07-06T01:59:12.754Z,99.90
2017-07-06T02:01:40.980Z,99.90
2017-07-06T02:04:09.219Z,99.90
2017-07-06T02:06:37.503Z,99.90
2017-07-06T02:09:12.984Z,99.90
2017-07-06T02:11:42.038Z,99.90
2017-07-06T02:14:10.254Z,99.90
2017-07-06T02:16:39.345Z,99.90
2017-07-06T02:25:09.235Z,99.90
2017-07-06T02:27:37.458Z,99.90
2017-07-06T02:30:05.689Z,99.90
2017-07-06T02:35:34.942Z,99.90
2017-07-06T02:38:03.165Z,99.90
2017-07-06T02:40:31.386Z,99.90
2017-07-06T02:42:59.657Z,99.90
2017-07-06T02:45:27.911Z,99.90
2017-07-06T02:47:56.143Z,99.90
2017-07-06T02:50:25.179Z,99.90
2017-07-06T02:52:53.416Z,99.90
2017-07-06T02:55:22.429Z,99.90
2017-07-06T02:57:50.687Z,99.90
2017-07-06T03:00:19.710Z,99.90
2017-07-06T03:02:48.778Z,99.90
2017-07-06T03:05:17.822Z,99.90
2017-07-06T03:07:46.035Z,99.90
2017-07-06T03:10:15.033Z,99.90
2017-07-06T03:12:44.062Z,99.90
2017-07-06T03:16:16.258Z,99.90
2017-07-06T03:18:44.553Z,99.90
2017-07-06T03:21:12.778Z,99.90
2017-07-06T03:23:41.002Z,99.90
2017-07-06T03:26:09.394Z,99.90
2017-07-06T03:28:37.609Z,99.90
2017-07-06T03:31:05.882Z,99.90
2017-07-06T03:33:34.177Z,99.90
2017-07-06T03:36:02.416Z,99.90
2017-07-06T03:38:30.663Z,99.90
2017-07-06T03:40:58.950Z,99.90
2017-07-06T03:43:27.949Z,99.90
2017-07-06T03:46:13.338Z,99.90
2017-07-06T03:48:41.561Z,99.90
2017-07-06T03:51:09.788Z,99.90
2017-07-06T03:53:38.052Z,99.90
2017-07-06T03:56:07.051Z,99.90
2017-07-06T03:58:35.274Z,99.90
2017-07-06T04:01:03.555Z,99.90
2017-07-06T04:03:31.814Z,99.90
2017-07-06T04:06:00.035Z,99.90
2017-07-06T04:08:29.086Z,99.90
2017-07-06T04:10:57.331Z,99.90
2017-07-06T04:13:25.573Z,99.90
2017-07-06T04:15:53.851Z,99.90
2017-07-06T04:18:22.111Z,99.90
2017-07-06T04:20:50.358Z,99.90
2017-07-06T04:23:18.641Z,99.90
2017-07-06T04:25:46.874Z,99.90
2017-07-06T04:31:16.247Z,99.90
2017-07-06T04:33:44.494Z,99.90
2017-07-06T04:36:12.794Z,99.90
2017-07-06T04:38:41.079Z,99.90
2017-07-06T04:41:09.327Z,99.90
2017-07-06T04:43:37.571Z,99.90
2017-07-06T04:46:13.278Z,99.90
2017-07-06T04:52:12.978Z,99.90
2017-07-06T04:57:49.037Z,99.90
2017-07-06T05:00:17.259Z,99.90
2017-07-06T05:21:10.545Z,99.90
2017-07-06T05:26:38.661Z,99.90
2017-07-06T05:29:06.911Z,99.90
2017-07-06T05:31:35.941Z,99.90
2017-07-06T05:34:04.238Z,99.90
2017-07-06T05:36:32.485Z,99.90
2017-07-06T05:42:01.494Z,99.90
2017-07-06T05:44:30.518Z,99.90
2017-07-06T05:46:58.770Z,99.90
2017-07-06T05:49:27.061Z,99.90
2017-07-06T05:51:55.297Z,99.90
2017-07-06T05:57:24.449Z,99.90
2017-07-06T05:59:52.696Z,99.90
2017-07-06T06:02:22.532Z,99.90
2017-07-06T06:07:51.502Z,99.90
2017-07-06T06:10:20.516Z,99.90
2017-07-06T06:12:49.515Z,99.90
2017-07-06T06:15:17.824Z,99.90
2017-07-06T06:17:46.058Z,99.90
2017-07-06T06:20:15.078Z,99.90
2017-07-06T06:22:43.379Z,99.90
2017-07-06T06:25:11.649Z,99.90
2017-07-06T06:27:39.918Z,99.90
2017-07-06T06:30:08.445Z,99.90
2017-07-06T06:38:38.707Z,99.90
2017-07-06T06:41:07.734Z,99.90
2017-07-06T06:43:35.990Z,99.90
2017-07-06T06:46:13.670Z,99.90
2017-07-06T07:24:35.408Z,99.90
2017-07-06T07:27:29.822Z,99.90
2017-07-06T07:42:04.792Z,99.90
2017-07-06T08:50:24.246Z,99.90
2017-07-06T08:56:22.056Z,96.50
2017-07-06T09:07:45.143Z,93.30
2017-07-06T09:10:13.403Z,93.40
2017-07-06T09:12:41.654Z,95.30
2017-07-06T09:15:09.929Z,91.10
2017-07-06T09:17:39.048Z,90.90
2017-07-06T09:20:08.044Z,92.70
2017-07-06T09:22:37.083Z,93.80
2017-07-06T09:25:05.313Z,93.70
2017-07-06T09:27:33.543Z,93.40
2017-07-06T09:30:01.833Z,87.30
2017-07-06T09:32:30.084Z,89.60
2017-07-06T09:34:58.337Z,89.50
2017-07-06T09:37:26.631Z,86.90
2017-07-06T09:39:54.866Z,90.40
2017-07-06T09:42:23.109Z,85.10
2017-07-06T09:45:11.295Z,91.60
2017-07-06T09:47:39.549Z,82.50
2017-07-06T09:53:08.498Z,81.60
2017-07-06T09:55:36.737Z,81.90
2017-07-06T09:58:14.003Z,81.50
2017-07-06T10:00:42.241Z,81.80
2017-07-06T10:03:10.746Z,82.90
2017-07-06T10:08:39.370Z,81.80
2017-07-06T10:11:14.705Z,78.00
2017-07-06T10:13:43.004Z,77.60
2017-07-06T10:16:11.255Z,80.00
2017-07-06T10:21:39.777Z,76.40
2017-07-06T10:24:08.772Z,76.40
2017-07-06T10:26:37.878Z,81.40
2017-07-06T10:29:06.104Z,81.60
2017-07-06T10:37:34.844Z,74.80
2017-07-06T10:40:03.088Z,73.90
2017-07-06T10:42:31.324Z,77.00
2017-07-06T10:44:59.642Z,71.20
2017-07-06T10:47:27.890Z,73.20
2017-07-06T10:49:56.157Z,78.10
2017-07-06T10:52:24.464Z,77.70
2017-07-06T11:02:12.904Z,68.30
2017-07-06T11:04:41.923Z,69.80
2017-07-06T11:07:10.167Z,69.90
2017-07-06T11:09:39.231Z,67.90
2017-07-06T11:12:07.474Z,68.80
2017-07-06T11:14:35.700Z,68.60
2017-07-06T11:17:04.010Z,67.90
2017-07-06T11:19:32.271Z,68.80
2017-07-06T11:25:01.000Z,67.30
2017-07-06T11:30:29.735Z,73.40
2017-07-06T11:32:58.013Z,66.10
2017-07-06T11:35:26.249Z,71.80
2017-07-06T11:37:54.532Z,67.50
2017-07-06T11:40:22.766Z,66.60
2017-07-06T11:42:50.990Z,69.50
2017-07-06T11:45:19.347Z,73.30
2017-07-06T11:47:47.583Z,70.50
2017-07-06T11:50:15.818Z,70.10
2017-07-06T11:52:44.093Z,70.60
2017-07-06T11:55:12.802Z,69.00
2017-07-06T11:57:41.032Z,64.30
2017-07-06T12:00:09.401Z,60.40
2017-07-06T12:02:37.673Z,64.70
2017-07-06T12:05:13.401Z,61.40
2017-07-06T12:07:41.963Z,62.90
2017-07-06T12:10:15.942Z,66.90
2017-07-06T12:13:12.557Z,70.70
2017-07-06T12:15:40.879Z,65.20
2017-07-06T12:21:09.333Z,68.30
2017-07-06T12:26:39.570Z,55.20
2017-07-06T12:29:08.576Z,59.50
2017-07-06T12:31:36.820Z,59.20
2017-07-06T12:34:05.157Z,63.80
2017-07-06T12:36:33.374Z,59.10
2017-07-06T12:39:01.606Z,57.50
2017-07-06T12:41:29.983Z,59.30
2017-07-06T12:43:58.212Z,57.70
2017-07-06T12:49:27.438Z,61.50
2017-07-06T12:52:13.432Z,55.40
2017-07-06T12:54:42.505Z,58.60
2017-07-06T12:57:10.731Z,58.60
2017-07-06T12:59:38.972Z,57.70
2017-07-06T13:02:08.050Z,58.40
2017-07-06T13:04:36.294Z,58.40
2017-07-06T13:07:04.521Z,54.90
2017-07-06T13:09:32.816Z,60.30
2017-07-06T13:12:01.045Z,58.90
2017-07-06T13:14:29.267Z,58.50
2017-07-06T13:16:57.611Z,56.70
2017-07-06T13:19:25.886Z,55.70
2017-07-06T13:22:14.071Z,58.20
2017-07-06T13:24:42.308Z,57.20
2017-07-06T13:27:11.316Z,52.30
2017-07-06T13:30:05.704Z,52.20
2017-07-06T13:32:33.941Z,54.90
2017-07-06T13:35:14.880Z,52.50
2017-07-06T13:37:43.109Z,51.90
2017-07-06T13:40:12.108Z,47.20
2017-07-06T13:42:41.179Z,47.40
2017-07-06T13:45:09.398Z,46.90
2017-07-06T13:47:37.630Z,47.90
2017-07-06T13:50:06.004Z,47.60
2017-07-06T13:52:34.234Z,47.30
2017-07-06T13:55:02.463Z,47.90
2017-07-06T13:57:31.519Z,50.50
2017-07-06T13:59:59.747Z,50.40
2017-07-06T14:02:27.996Z,45.10
2017-07-06T14:04:56.295Z,47.80
2017-07-06T14:07:25.285Z,47.20
2017-07-06T14:09:54.274Z,47.90
2017-07-06T14:12:23.353Z,43.00
2017-07-06T14:14:51.616Z,43.00
2017-07-06T14:17:19.854Z,43.50
2017-07-06T14:19:48.189Z,43.40
2017-07-06T14:22:17.176Z,47.10
2017-07-06T14:25:12.822Z,46.80
2017-07-06T14:27:41.061Z,45.60
2017-07-06T14:30:09.287Z,44.90
2017-07-06T14:32:37.605Z,40.60
2017-07-06T14:35:05.834Z,41.30
2017-07-06T14:37:34.067Z,44.20
2017-07-06T14:40:02.354Z,42.70
2017-07-06T14:42:31.335Z,42.50
2017-07-06T14:47:59.986Z,40.60
2017-07-06T14:50:28.256Z,40.40
2017-07-06T14:53:13.652Z,37.50
2017-07-06T14:55:41.882Z,41.00
2017-07-06T14:58:10.863Z,40.10
2017-07-06T15:00:39.181Z,40.00
2017-07-06T15:03:07.435Z,35.60
2017-07-06T15:05:35.680Z,34.70
2017-07-06T15:08:13.716Z,36.60
2017-07-06T15:10:41.961Z,34.30
2017-07-06T15:13:16.225Z,38.60
2017-07-06T15:15:44.452Z,40.00
2017-07-06T15:18:12.701Z,45.60
2017-07-06T15:20:40.998Z,39.20
2017-07-06T15:23:09.237Z,40.20
2017-07-06T15:28:37.876Z,43.00
2017-07-06T15:31:06.102Z,41.00
2017-07-06T15:33:34.354Z,43.70
2017-07-06T15:36:03.418Z,41.80
2017-07-06T15:38:31.643Z,41.90
2017-07-06T15:41:12.933Z,41.70
2017-07-06T15:43:41.176Z,42.80
2017-07-06T15:46:09.412Z,35.50
2017-07-06T15:48:37.744Z,39.30
2017-07-06T15:51:06.007Z,39.60
2017-07-06T15:56:35.951Z,38.10
2017-07-06T15:59:04.201Z,36.70
2017-07-06T16:01:33.211Z,33.60
2017-07-06T16:04:15.977Z,33.70
2017-07-06T16:06:44.230Z,33.70
2017-07-06T16:09:12.460Z,37.90
2017-07-06T16:11:41.548Z,32.90
2017-07-06T16:14:09.774Z,32.90
2017-07-06T16:16:37.991Z,32.30
2017-07-06T16:19:06.283Z,35.20
2017-07-06T16:21:35.271Z,34.10
2017-07-06T16:24:04.273Z,32.30
2017-07-06T16:26:33.373Z,32.50
2017-07-06T16:29:02.357Z,34.90
2017-07-06T16:31:31.475Z,38.70
2017-07-06T16:33:59.691Z,38.70
2017-07-06T16:36:33.858Z,37.20
2017-07-06T16:39:02.096Z,39.10
2017-07-06T16:41:30.348Z,41.00
2017-07-06T16:43:58.649Z,38.90
2017-07-06T16:46:26.867Z,39.40
2017-07-06T16:48:55.096Z,41.10
2017-07-06T16:51:23.385Z,36.10
2017-07-06T16:53:51.625Z,38.50
2017-07-06T16:56:19.881Z,39.70
2017-07-06T16:58:48.300Z,38.70
2017-07-06T17:01:16.520Z,38.60
2017-07-06T17:03:44.737Z,38.20
2017-07-06T17:06:13.024Z,40.30
2017-07-06T17:08:41.248Z,38.50
2017-07-06T17:11:09.477Z,38.00
2017-07-06T17:13:37.783Z,38.70
2017-07-06T17:16:06.765Z,38.20
2017-07-06T17:21:36.458Z,40.00
2017-07-06T17:24:04.788Z,40.00
2017-07-06T17:26:33.018Z,39.80
2017-07-06T17:29:01.325Z,40.60
2017-07-06T17:31:30.314Z,41.00
2017-07-06T17:33:59.309Z,42.10
2017-07-06T17:36:28.354Z,40.20
2017-07-06T17:38:56.590Z,40.00
2017-07-06T17:41:24.806Z,41.80
2017-07-06T17:43:53.132Z,40.60
2017-07-06T17:49:22.248Z,42.40
2017-07-06T17:51:50.495Z,41.70
2017-07-06T17:54:18.722Z,41.00
2017-07-06T17:57:13.108Z,40.90
2017-07-06T18:02:42.075Z,41.80
2017-07-06T18:08:14.482Z,42.50
2017-07-06T18:10:43.490Z,42.70
2017-07-06T18:13:15.032Z,42.80
2017-07-06T18:16:13.210Z,45.10
2017-07-06T18:18:41.496Z,42.80
2017-07-06T18:21:09.732Z,44.40
2017-07-06T18:26:37.845Z,45.30
2017-07-06T18:32:14.203Z,47.50
2017-07-06T18:34:42.453Z,47.50
2017-07-06T18:40:14.799Z,46.60
2017-07-06T18:43:13.228Z,46.70
2017-07-06T18:48:41.367Z,47.50
2017-07-06T18:51:16.346Z,48.40
2017-07-06T18:57:02.430Z,48.30
2017-07-06T18:59:30.660Z,48.30
2017-07-06T19:05:13.587Z,49.90
2017-07-06T19:07:41.827Z,49.90
2017-07-06T19:10:16.129Z,49.00
2017-07-06T19:12:44.366Z,49.50
2017-07-06T19:15:12.606Z,49.10
2017-07-06T19:17:40.919Z,50.30
2017-07-06T19:20:09.226Z,49.80
2017-07-06T19:22:37.479Z,50.00
2017-07-06T19:25:06.586Z,50.90
2017-07-06T19:27:35.581Z,50.60
2017-07-06T19:30:03.831Z,50.60
2017-07-06T19:32:32.158Z,50.40
2017-07-06T19:35:13.802Z,50.70
2017-07-06T19:40:42.170Z,52.00
2017-07-06T19:43:10.405Z,52.00
2017-07-06T19:45:38.634Z,52.70
2017-07-06T19:48:06.918Z,52.90
2017-07-06T19:50:35.156Z,52.90
2017-07-06T19:53:16.090Z,53.20
2017-07-06T19:56:12.888Z,53.60
2017-07-06T19:58:41.187Z,53.60
2017-07-06T20:04:10.494Z,55.50
2017-07-06T20:09:39.734Z,56.80
2017-07-06T20:12:14.347Z,56.80
2017-07-06T20:14:42.655Z,57.80
2017-07-06T20:17:10.886Z,57.20
2017-07-06T20:19:39.101Z,57.60
2017-07-06T20:22:14.489Z,57.60
2017-07-06T20:24:42.736Z,57.50
2017-07-06T20:30:14.822Z,58.20
2017-07-06T20:32:43.055Z,57.90
2017-07-06T20:35:14.423Z,58.00
2017-07-06T20:37:43.415Z,59.60
2017-07-06T20:40:12.486Z,58.80
2017-07-06T20:45:41.429Z,60.00
2017-07-06T20:48:15.790Z,59.90
2017-07-06T20:51:12.590Z,60.00
2017-07-06T20:59:42.177Z,62.50
2017-07-06T21:02:10.438Z,61.60
2017-07-06T21:04:38.682Z,61.80
2017-07-06T21:07:14.206Z,61.80
2017-07-06T21:09:42.432Z,62.40
2017-07-06T21:12:16.751Z,63.70
2017-07-06T21:14:44.988Z,63.70
2017-07-06T21:17:14.493Z,65.10
2017-07-06T21:19:43.587Z,65.00
2017-07-06T21:25:13.278Z,66.20
2017-07-06T21:27:41.503Z,66.10
2017-07-06T21:30:09.734Z,65.80
2017-07-06T21:32:38.269Z,67.00
2017-07-06T21:35:06.498Z,67.40
2017-07-06T21:37:34.717Z,67.40
2017-07-06T21:40:03.010Z,67.50
2017-07-06T21:45:31.629Z,69.00
2017-07-06T21:47:59.847Z,68.80
2017-07-06T21:50:28.841Z,69.50
2017-07-06T21:52:57.168Z,69.50
2017-07-06T21:58:25.423Z,70.80
2017-07-06T22:00:53.656Z,71.00
2017-07-06T22:03:21.898Z,71.20
2017-07-06T22:05:50.194Z,71.60
2017-07-06T22:08:18.417Z,72.00
2017-07-06T22:13:47.638Z,72.30
2017-07-06T22:16:15.875Z,73.00
2017-07-06T22:18:44.098Z,73.50
2017-07-06T22:21:12.400Z,74.30
2017-07-06T22:23:40.631Z,74.40
2017-07-06T22:26:09.635Z,73.30
2017-07-06T22:28:37.934Z,73.40
2017-07-06T22:31:06.156Z,76.10
2017-07-06T22:33:35.160Z,76.20
2017-07-06T22:36:16.159Z,76.10
2017-07-06T22:38:44.391Z,76.90
2017-07-06T22:44:13.040Z,77.90
2017-07-06T22:46:41.265Z,77.90
2017-07-06T22:49:09.498Z,78.10
2017-07-06T22:51:37.791Z,78.20
2017-07-06T22:54:06.016Z,79.20
2017-07-06T22:56:35.020Z,79.70
2017-07-06T22:59:03.311Z,79.70
2017-07-06T23:01:31.535Z,78.90
2017-07-06T23:04:13.734Z,80.20
2017-07-06T23:06:41.965Z,79.80
2017-07-06T23:09:16.724Z,81.30
2017-07-06T23:11:44.948Z,81.20
2017-07-06T23:14:13.170Z,82.10
2017-07-06T23:16:41.480Z,81.60
2017-07-06T23:19:09.707Z,81.40
2017-07-06T23:21:37.938Z,83.10
2017-07-06T23:24:06.288Z,82.60
2017-07-06T23:26:34.531Z,83.20
2017-07-06T23:29:02.744Z,81.70
2017-07-06T23:34:40.640Z,85.80
2017-07-06T23:37:15.097Z,85.80
2017-07-06T23:39:44.199Z,86.40
2017-07-06T23:42:13.191Z,86.80
2017-07-06T23:44:42.183Z,86.50
2017-07-06T23:47:11.239Z,87.60
2017-07-06T23:49:39.480Z,87.50
2017-07-06T23:52:07.704Z,87.60
2017-07-06T23:54:35.986Z,88.40
2017-07-06T23:57:04.217Z,88.50
2017-07-06T23:59:32.454Z,88.20
